Time;durP1;ratioP1;P1;durP2;ratioP2;P2;SDS_P1;SDS_P2;PMS_P1;PMS_P2;Temp;Humidity;BMP_temperature;BMP_pressure;BME280_temperature;BME280_humidity;BME280_pressure;Samples;Min_cycle;Max_cycle;Signal;HPM_P1;HPM_P2
2023/07/30 00:01:59;;;;;;;;;;;;;;;;;;5014581;28;20395;-61
2023/07/30 00:04:25;;;;;;;;;;;;;;;;;;5014108;28;19925;-61
2023/07/30 00:06:51;;;;;;;;;;;;;;;;;;4993552;28;20328;-62
2023/07/30 00:09:17;;;;;;;;;;;;;;;;;;5013519;28;20059;-62
2023/07/30 00:11:42;;;;;;;;;;;;;;;;;;5025228;28;19913;-64
2023/07/30 00:14:08;;;;;;;;;;;;;;;;;;5015513;28;20388;-61
2023/07/30 00:16:34;;;;;;;;;;;;;;;;;;5003036;28;19967;-65
2023/07/30 00:19:00;;;;;;;;;;;;;;;;;;5010889;28;19913;-61
2023/07/30 00:21:26;;;;;;;;;;;;;;;;;;4997371;28;20407;-61
2023/07/30 00:23:52;;;;;;;;;;;;;;;;;;5003242;28;19928;-68
2023/07/30 00:26:18;;;;;;;;;;;;;;;;;;5003980;28;19964;-67
2023/07/30 00:28:44;;;;;;;;;;;;;;;;;;5013290;28;20015;-68
2023/07/30 00:31:10;;;;;;;;;;;;;;;;;;5022983;28;19924;-68
2023/07/30 00:33:35;;;;;;;;;;;;;;;;;;5021169;28;20011;-68
2023/07/30 00:36:01;;;;;;;;;;;;;;;;;;5013734;28;20357;-68
2023/07/30 00:38:27;;;;;;;;;;;;;;;;;;5013931;28;19959;-68
2023/07/30 00:40:53;;;;;;;;;;;;;;;;;;5011317;28;19918;-67
2023/07/30 00:43:19;;;;;;;;;;;;;;;;;;5011247;28;19914;-67
2023/07/30 00:45:45;;;;;;;;;;;;;;;;;;5022215;28;19951;-67
2023/07/30 00:48:11;;;;;;;;;;;;;;;;;;5010137;28;20392;-67
2023/07/30 00:50:37;;;;;;;;;;;;;;;;;;5016562;28;20341;-68
2023/07/30 00:53:03;;;;;;;;;;;;;;;;;;5025522;28;20339;-67
2023/07/30 00:55:30;;;;;;;;;;;;;;;;;;5027116;28;19918;-67
2023/07/30 00:57:55;;;;;;;;;;;;;;;;;;5029801;28;20012;-67
2023/07/30 01:00:22;;;;;;;;;;;;;;;;;;5013157;28;19960;-67
2023/07/30 01:02:48;;;;;;;;;;;;;;;;;;5012973;28;19913;-67
2023/07/30 01:05:14;;;;;;;;;;;;;;;;;;5011355;28;20348;-67
2023/07/30 01:07:39;;;;;;;;;;;;;;;;;;4992065;28;19921;-67
2023/07/30 01:10:05;;;;;;;;;;;;;;;;;;5012266;28;19917;-67
2023/07/30 01:12:31;;;;;;;;;;;;;;;;;;5022978;28;20016;-67
2023/07/30 01:14:57;;;;;;;;;;;;;;;;;;5014436;28;20004;-68
2023/07/30 01:17:23;;;;;;;;;;;;;;;;;;5013975;28;20385;-68
2023/07/30 01:19:49;;;;;;;;;;;;;;;;;;5011400;28;19959;-67
2023/07/30 01:22:15;;;;;;;;;;;;;;;;;;5013911;28;19999;-68
2023/07/30 01:24:41;;;;;;;;;;;;;;;;;;5026915;28;19964;-68
2023/07/30 01:27:07;;;;;;;;;;;;;;;;;;5012479;28;19910;-68
2023/07/30 01:29:33;;;;;;;;;;;;;;;;;;5013884;28;19914;-68
2023/07/30 01:31:59;;;;;;;;;;;;;;;;;;5013357;28;19913;-67
2023/07/30 01:34:25;;;;;;;;;;;;;;;;;;5014023;28;19960;-67
2023/07/30 01:36:50;;;;;;;;;;;;;;;;;;5012792;28;20427;-67
2023/07/30 01:39:16;;;;;;;;;;;;;;;;;;5013825;28;19920;-68
2023/07/30 01:41:42;;;;;;;;;;;;;;;;;;5014819;28;20000;-67
2023/07/30 01:44:08;;;;;;;;;;;;;;;;;;5010755;28;20795;-67
2023/07/30 01:46:34;;;;;;;;;;;;;;;;;;5019509;28;19913;-68
2023/07/30 01:49:00;;;;;;;;;;;;;;;;;;5014434;28;20285;-68
2023/07/30 01:51:26;;;;;;;;;;;;;;;;;;5011823;28;19956;-68
2023/07/30 01:53:52;;;;;;;;;;;;;;;;;;5013028;28;19910;-68
2023/07/30 01:56:18;;;;;;;;;;;;;;;;;;5011606;28;20020;-68
2023/07/30 01:58:43;;;;;;;;;;;;;;;;;;5012897;28;19913;-68
2023/07/30 02:01:09;;;;;;;;;;;;;;;;;;5023547;28;19960;-67
2023/07/30 02:03:35;;;;;;;;;;;;;;;;;;5011126;28;19956;-67
2023/07/30 02:06:02;;;;;;;;;;;;;;;;;;5015875;28;20459;-67
2023/07/30 02:08:27;;;;;;;;;;;;;;;;;;5012951;28;19917;-67
2023/07/30 02:10:53;;;;;;;;;;;;;;;;;;5013062;28;20060;-67
2023/07/30 02:13:19;;;;;;;;;;;;;;;;;;5013365;28;19919;-67
2023/07/30 02:15:45;;;;;;;;;;;;;;;;;;5026735;28;19917;-67
2023/07/30 02:18:11;;;;;;;;;;;;;;;;;;5019525;28;19969;-67
2023/07/30 02:20:37;;;;;;;;;;;;;;;;;;5009919;28;20006;-67
2023/07/30 02:23:03;;;;;;;;;;;;;;;;;;5013146;28;20400;-67
2023/07/30 02:25:29;;;;;;;;;;;;;;;;;;4997003;28;19955;-67
2023/07/30 02:27:55;;;;;;;;;;;;;;;;;;5014168;28;19917;-67
2023/07/30 02:30:21;;;;;;;;;;;;;;;;;;5012860;28;20387;-67
2023/07/30 02:32:47;;;;;;;;;;;;;;;;;;5012212;28;19949;-67
2023/07/30 02:35:13;;;;;;;;;;;;;;;;;;5004020;28;20268;-67
2023/07/30 02:37:38;;;;;;;;;;;;;;;;;;5012973;28;19914;-68
2023/07/30 02:40:04;;;;;;;;;;;;;;;;;;5011592;28;19963;-67
2023/07/30 02:42:31;;;;;;;;;;;;;;;;;;5011145;28;19953;-68
2023/07/30 02:44:57;;;;;;;;;;;;;;;;;;5011582;28;19917;-67
2023/07/30 02:47:22;;;;;;;;;;;;;;;;;;5010063;28;19920;-66
2023/07/30 02:49:48;;;;;;;;;;;;;;;;;;5029044;28;19963;-68
2023/07/30 02:52:14;;;;;;;;;;;;;;;;;;5013607;28;19913;-68
2023/07/30 02:54:40;;;;;;;;;;;;;;;;;;5018386;28;19985;-68
2023/07/30 02:57:06;;;;;;;;;;;;;;;;;;5014089;28;19920;-68
2023/07/30 02:59:35;;;;;;;;;;;;;;;;;;5014825;28;19913;-69
2023/07/30 03:02:01;;;;;;;;;;;;;;;;;;5014469;28;20523;-68
2023/07/30 03:04:27;;;;;;;;;;;;;;;;;;5026139;28;20015;-68
2023/07/30 03:06:53;;;;;;;;;;;;;;;;;;4993007;28;19920;-68
2023/07/30 03:09:19;;;;;;;;;;;;;;;;;;5009762;28;19941;-68
2023/07/30 03:11:45;;;;;;;;;;;;;;;;;;5016972;28;19960;-69
2023/07/30 03:14:11;;;;;;;;;;;;;;;;;;4993637;28;20004;-68
2023/07/30 03:16:37;;;;;;;;;;;;;;;;;;5019014;28;19951;-68
2023/07/30 03:19:03;;;;;;;;;;;;;;;;;;5010879;28;19913;-67
2023/07/30 03:21:28;;;;;;;;;;;;;;;;;;4995032;28;19917;-68
2023/07/30 03:23:54;;;;;;;;;;;;;;;;;;5013771;28;19917;-68
2023/07/30 03:26:20;;;;;;;;;;;;;;;;;;4992459;28;20339;-68
2023/07/30 03:28:46;;;;;;;;;;;;;;;;;;5004713;28;20024;-68
2023/07/30 03:31:12;;;;;;;;;;;;;;;;;;5028522;28;19985;-68
2023/07/30 03:33:39;;;;;;;;;;;;;;;;;;5015450;28;19917;-68
2023/07/30 03:36:05;;;;;;;;;;;;;;;;;;5015756;28;19917;-68
2023/07/30 03:38:31;;;;;;;;;;;;;;;;;;4988882;28;19963;-66
2023/07/30 03:40:56;;;;;;;;;;;;;;;;;;5014928;28;19921;-68
2023/07/30 03:43:22;;;;;;;;;;;;;;;;;;5022514;28;20004;-68
2023/07/30 03:45:48;;;;;;;;;;;;;;;;;;4999408;28;20387;-68
2023/07/30 03:48:14;;;;;;;;;;;;;;;;;;5028852;28;19957;-68
2023/07/30 03:50:40;;;;;;;;;;;;;;;;;;5018297;28;19955;-67
2023/07/30 03:53:09;;;;;;;;;;;;;;;;;;5019459;28;20384;-61
2023/07/30 03:55:35;;;;;;;;;;;;;;;;;;5011196;28;19921;-68
2023/07/30 03:58:00;;;;;;;;;;;;;;;;;;5022557;28;19960;-67
2023/07/30 04:00:26;;;;;;;;;;;;;;;;;;5023928;28;19921;-68
2023/07/30 04:02:52;;;;;;;;;;;;;;;;;;5006146;28;19917;-67
2023/07/30 04:05:18;;;;;;;;;;;;;;;;;;5011489;28;20024;-67
2023/07/30 04:07:44;;;;;;;;;;;;;;;;;;5012873;28;19991;-68
2023/07/30 04:10:10;;;;;;;;;;;;;;;;;;5010951;28;19935;-67
2023/07/30 04:12:36;;;;;;;;;;;;;;;;;;4995897;28;19913;-67
2023/07/30 04:15:02;;;;;;;;;;;;;;;;;;5020303;28;20003;-67
2023/07/30 04:17:28;;;;;;;;;;;;;;;;;;5015704;28;20308;-68
2023/07/30 04:19:54;;;;;;;;;;;;;;;;;;5016932;28;19965;-68
2023/07/30 04:22:20;;;;;;;;;;;;;;;;;;5012988;28;20012;-67
2023/07/30 04:24:46;;;;;;;;;;;;;;;;;;5020732;28;20425;-68
2023/07/30 04:27:12;;;;;;;;;;;;;;;;;;4995187;28;20352;-68
2023/07/30 04:29:38;;;;;;;;;;;;;;;;;;5014000;28;19990;-68
2023/07/30 04:32:03;;;;;;;;;;;;;;;;;;5020573;28;20020;-68
2023/07/30 04:34:29;;;;;;;;;;;;;;;;;;5016669;28;19956;-68
2023/07/30 04:36:55;;;;;;;;;;;;;;;;;;5009723;28;19960;-67
2023/07/30 04:39:21;;;;;;;;;;;;;;;;;;5013189;28;19918;-67
2023/07/30 04:41:47;;;;;;;;;;;;;;;;;;5008538;28;19975;-69
2023/07/30 04:44:13;;;;;;;;;;;;;;;;;;5021355;28;19936;-68
2023/07/30 04:46:39;;;;;;;;;;;;;;;;;;5007626;28;19925;-67
2023/07/30 04:49:05;;;;;;;;;;;;;;;;;;5019526;28;19960;-68
2023/07/30 04:51:31;;;;;;;;;;;;;;;;;;5013532;28;20384;-68
2023/07/30 04:53:57;;;;;;;;;;;;;;;;;;5015285;28;19920;-68
2023/07/30 04:56:24;;;;;;;;;;;;;;;;;;5018077;28;19950;-67
2023/07/30 04:58:50;;;;;;;;;;;;;;;;;;5015350;28;20280;-68
2023/07/30 05:01:16;;;;;;;;;;;;;;;;;;5013586;28;19923;-68
2023/07/30 05:03:42;;;;;;;;;;;;;;;;;;5012318;28;19957;-68
2023/07/30 05:06:08;;;;;;;;;;;;;;;;;;4954523;28;1668965;-68
2023/07/30 05:08:34;;;;;;;;;;;;;;;;;;5018588;28;19941;-68
2023/07/30 05:11:00;;;;;;;;;;;;;;;;;;5007842;28;19957;-67
2023/07/30 05:13:25;;;;;;;;;;;;;;;;;;5013228;28;20279;-68
2023/07/30 05:15:51;;;;;;;;;;;;;;;;;;5014773;28;19916;-67
2023/07/30 05:18:17;;;;;;;;;;;;;;;;;;5016769;28;19976;-68
2023/07/30 05:20:43;;;;;;;;;;;;;;;;;;5016235;28;19976;-67
2023/07/30 05:23:09;;;;;;;;;;;;;;;;;;5012510;28;19944;-68
2023/07/30 05:25:35;;;;;;;;;;;;;;;;;;5015654;28;19956;-67
2023/07/30 05:28:01;;;;;;;;;;;;;;;;;;5014980;28;20448;-68
2023/07/30 05:30:27;;;;;;;;;;;;;;;;;;5019852;28;19992;-67
2023/07/30 05:32:53;;;;;;;;;;;;;;;;;;5016608;28;19913;-67
2023/07/30 05:35:19;;;;;;;;;;;;;;;;;;5013014;28;20306;-67
2023/07/30 05:37:45;;;;;;;;;;;;;;;;;;5010478;28;19964;-68
2023/07/30 05:40:11;;;;;;;;;;;;;;;;;;5009951;28;19956;-68
2023/07/30 05:42:37;;;;;;;;;;;;;;;;;;5010929;28;19999;-68
2023/07/30 05:45:03;;;;;;;;;;;;;;;;;;5011520;28;19996;-68
2023/07/30 05:47:29;;;;;;;;;;;;;;;;;;5011144;28;19945;-67
2023/07/30 05:49:54;;;;;;;;;;;;;;;;;;5012312;28;19913;-67
2023/07/30 05:52:20;;;;;;;;;;;;;;;;;;5012504;28;20322;-67
2023/07/30 05:54:46;;;;;;;;;;;;;;;;;;5005055;28;19918;-68
2023/07/30 05:57:12;;;;;;;;;;;;;;;;;;5013758;28;19973;-67
2023/07/30 05:59:38;;;;;;;;;;;;;;;;;;5012192;28;19949;-68
2023/07/30 06:02:04;;;;;;;;;;;;;;;;;;5007994;28;20341;-68
2023/07/30 06:04:30;;;;;;;;;;;;;;;;;;5014885;28;20368;-68
2023/07/30 06:06:56;;;;;;;;;;;;;;;;;;5018006;28;19921;-67
2023/07/30 06:09:22;;;;;;;;;;;;;;;;;;5011976;28;19995;-68
2023/07/30 06:11:48;;;;;;;;;;;;;;;;;;5010493;28;19914;-67
2023/07/30 06:14:14;;;;;;;;;;;;;;;;;;5011334;28;20068;-67
2023/07/30 06:16:40;;;;;;;;;;;;;;;;;;5005220;28;20012;-67
2023/07/30 06:19:05;;;;;;;;;;;;;;;;;;5009849;28;19917;-67
2023/07/30 06:21:31;;;;;;;;;;;;;;;;;;4993981;28;19922;-68
2023/07/30 06:23:57;;;;;;;;;;;;;;;;;;5011798;28;19964;-67
2023/07/30 06:26:23;;;;;;;;;;;;;;;;;;5009801;28;20004;-67
2023/07/30 06:28:49;;;;;;;;;;;;;;;;;;5009769;28;19914;-67
2023/07/30 06:31:15;;;;;;;;;;;;;;;;;;5011062;28;20001;-68
2023/07/30 06:33:41;;;;;;;;;;;;;;;;;;5006097;28;19921;-67
2023/07/30 06:36:07;;;;;;;;;;;;;;;;;;5009485;28;19953;-67
2023/07/30 06:38:33;;;;;;;;;;;;;;;;;;5011850;28;19917;-67
2023/07/30 06:40:59;;;;;;;;;;;;;;;;;;5010795;28;19968;-67
2023/07/30 06:43:24;;;;;;;;;;;;;;;;;;5009548;28;19919;-67
2023/07/30 06:45:50;;;;;;;;;;;;;;;;;;5002837;28;19961;-67
2023/07/30 06:48:16;;;;;;;;;;;;;;;;;;5011383;28;20483;-67
2023/07/30 06:50:42;;;;;;;;;;;;;;;;;;5007633;28;19913;-68
2023/07/30 06:53:08;;;;;;;;;;;;;;;;;;5008705;28;20393;-67
2023/07/30 06:55:34;;;;;;;;;;;;;;;;;;5009900;28;19987;-67
2023/07/30 06:58:00;;;;;;;;;;;;;;;;;;5013639;28;19913;-68
2023/07/30 07:00:26;;;;;;;;;;;;;;;;;;5012157;28;19980;-67
2023/07/30 07:02:52;;;;;;;;;;;;;;;;;;5002802;28;19917;-67
2023/07/30 07:05:17;;;;;;;;;;;;;;;;;;5006231;28;20383;-67
2023/07/30 07:07:43;;;;;;;;;;;;;;;;;;5010507;28;20422;-68
2023/07/30 07:10:10;;;;;;;;;;;;;;;;;;5009299;28;19963;-67
2023/07/30 07:12:37;;;;;;;;;;;;;;;;;;5013186;28;19917;-68
2023/07/30 07:15:03;;;;;;;;;;;;;;;;;;5010357;28;20008;-66
2023/07/30 07:17:29;;;;;;;;;;;;;;;;;;5008324;28;19917;-68
2023/07/30 07:19:55;;;;;;;;;;;;;;;;;;5002932;28;20384;-67
2023/07/30 07:22:21;;;;;;;;;;;;;;;;;;5008878;28;19960;-66
2023/07/30 07:24:47;;;;;;;;;;;;;;;;;;5010420;28;20004;-67
2023/07/30 07:27:13;;;;;;;;;;;;;;;;;;5007617;28;20356;-66
2023/07/30 07:29:39;;;;;;;;;;;;;;;;;;5013127;28;20040;-66
2023/07/30 07:32:05;;;;;;;;;;;;;;;;;;5010492;28;20395;-66
2023/07/30 07:34:31;;;;;;;;;;;;;;;;;;5015316;28;19957;-67
2023/07/30 07:36:57;;;;;;;;;;;;;;;;;;5011081;28;19948;-67
2023/07/30 07:39:22;;;;;;;;;;;;;;;;;;5009830;28;19924;-67
2023/07/30 07:41:48;;;;;;;;;;;;;;;;;;5002003;28;19968;-68
2023/07/30 07:44:14;;;;;;;;;;;;;;;;;;5011968;28;20315;-66
2023/07/30 07:46:40;;;;;;;;;;;;;;;;;;5017316;28;20348;-68
2023/07/30 07:49:08;;;;;;;;;;;;;;;;;;5009789;28;19992;-67
2023/07/30 07:51:34;;;;;;;;;;;;;;;;;;5010878;28;19914;-68
2023/07/30 07:54:00;;;;;;;;;;;;;;;;;;5009739;28;19960;-68
2023/07/30 07:56:26;;;;;;;;;;;;;;;;;;5005125;28;19956;-68
2023/07/30 07:58:52;;;;;;;;;;;;;;;;;;5010078;28;20293;-68
2023/07/30 08:01:18;;;;;;;;;;;;;;;;;;5008726;28;19977;-68
2023/07/30 08:03:43;;;;;;;;;;;;;;;;;;5008926;28;20055;-68
2023/07/30 08:06:09;;;;;;;;;;;;;;;;;;5005356;28;20015;-68
2023/07/30 08:08:35;;;;;;;;;;;;;;;;;;5002353;28;19921;-69
2023/07/30 08:11:01;;;;;;;;;;;;;;;;;;5001363;28;19913;-69
2023/07/30 08:13:27;;;;;;;;;;;;;;;;;;5006996;28;19952;-68
2023/07/30 08:15:53;;;;;;;;;;;;;;;;;;5007329;28;20403;-67
2023/07/30 08:18:19;;;;;;;;;;;;;;;;;;5008108;28;20027;-68
2023/07/30 08:20:45;;;;;;;;;;;;;;;;;;5016722;28;19921;-68
2023/07/30 08:23:11;;;;;;;;;;;;;;;;;;5010264;28;19939;-67
2023/07/30 08:25:37;;;;;;;;;;;;;;;;;;5011357;28;20440;-69
2023/07/30 08:28:02;;;;;;;;;;;;;;;;;;5011456;28;19952;-67
2023/07/30 08:30:29;;;;;;;;;;;;;;;;;;5013589;28;19922;-69
2023/07/30 08:32:55;;;;;;;;;;;;;;;;;;5012411;28;19918;-69
2023/07/30 08:35:21;;;;;;;;;;;;;;;;;;5017594;28;19963;-68
2023/07/30 08:37:47;;;;;;;;;;;;;;;;;;5014549;28;20316;-67
2023/07/30 08:40:12;;;;;;;;;;;;;;;;;;5007724;28;20015;-68
2023/07/30 08:42:38;;;;;;;;;;;;;;;;;;5012524;28;19918;-66
2023/07/30 08:45:04;;;;;;;;;;;;;;;;;;4992262;28;20388;-69
2023/07/30 08:47:32;;;;;;;;;;;;;;;;;;5009597;28;20440;-67
2023/07/30 08:49:58;;;;;;;;;;;;;;;;;;4993765;28;20264;-68
2023/07/30 08:52:24;;;;;;;;;;;;;;;;;;5008558;28;19922;-68
2023/07/30 08:54:49;;;;;;;;;;;;;;;;;;5009053;28;19929;-68
2023/07/30 08:57:15;;;;;;;;;;;;;;;;;;5007062;28;19998;-67
2023/07/30 08:59:41;;;;;;;;;;;;;;;;;;5011879;28;19913;-68
2023/07/30 09:02:07;;;;;;;;;;;;;;;;;;5009756;28;19913;-69
2023/07/30 09:04:33;;;;;;;;;;;;;;;;;;5011804;28;19927;-68
2023/07/30 09:06:59;;;;;;;;;;;;;;;;;;5013657;28;20282;-68
2023/07/30 09:09:25;;;;;;;;;;;;;;;;;;5013996;28;20012;-67
2023/07/30 09:11:51;;;;;;;;;;;;;;;;;;5003903;28;20011;-67
2023/07/30 09:14:17;;;;;;;;;;;;;;;;;;5018118;28;20008;-67
2023/07/30 09:16:43;;;;;;;;;;;;;;;;;;5012658;28;19960;-67
2023/07/30 09:19:09;;;;;;;;;;;;;;;;;;4991797;28;20392;-67
2023/07/30 09:21:34;;;;;;;;;;;;;;;;;;5021172;28;19923;-67
2023/07/30 09:24:05;;;;;;;;;;;;;;;;;;5016827;28;20080;-67
2023/07/30 09:26:31;;;;;;;;;;;;;;;;;;5010950;28;19921;-67
2023/07/30 09:28:57;;;;;;;;;;;;;;;;;;5013224;28;19972;-67
2023/07/30 09:31:23;;;;;;;;;;;;;;;;;;5011020;28;20265;-67
2023/07/30 09:33:49;;;;;;;;;;;;;;;;;;5012703;28;19956;-67
2023/07/30 09:36:14;;;;;;;;;;;;;;;;;;5011540;28;19919;-67
2023/07/30 09:38:40;;;;;;;;;;;;;;;;;;5015099;28;19914;-66
2023/07/30 09:41:06;;;;;;;;;;;;;;;;;;5013384;28;19921;-66
2023/07/30 09:43:32;;;;;;;;;;;;;;;;;;5007251;28;19926;-65
2023/07/30 09:45:58;;;;;;;;;;;;;;;;;;5010173;28;20334;-66
2023/07/30 09:48:24;;;;;;;;;;;;;;;;;;5003708;28;20000;-64
2023/07/30 09:50:50;;;;;;;;;;;;;;;;;;5010572;28;19913;-65
2023/07/30 09:53:16;;;;;;;;;;;;;;;;;;5012069;28;19918;-64
2023/07/30 09:55:42;;;;;;;;;;;;;;;;;;5011884;28;19961;-63
2023/07/30 09:58:11;;;;;;;;;;;;;;;;;;5006780;28;19971;-65
2023/07/30 10:00:37;;;;;;;;;;;;;;;;;;5014363;28;19917;-65
2023/07/30 10:03:02;;;;;;;;;;;;;;;;;;5015788;28;19992;-65
2023/07/30 10:05:28;;;;;;;;;;;;;;;;;;5000651;28;19925;-65
2023/07/30 10:07:54;;;;;;;;;;;;;;;;;;5004500;28;19963;-65
2023/07/30 10:10:20;;;;;;;;;;;;;;;;;;5006738;28;20289;-65
2023/07/30 10:12:46;;;;;;;;;;;;;;;;;;5002228;28;19957;-65
2023/07/30 10:15:12;;;;;;;;;;;;;;;;;;5018369;28;19991;-64
2023/07/30 10:17:38;;;;;;;;;;;;;;;;;;5020765;28;20008;-65
2023/07/30 10:20:04;;;;;;;;;;;;;;;;;;5007869;28;19940;-65
2023/07/30 10:22:30;;;;;;;;;;;;;;;;;;5010903;28;20026;-65
2023/07/30 10:24:56;;;;;;;;;;;;;;;;;;5013660;28;19925;-65
2023/07/30 10:27:22;;;;;;;;;;;;;;;;;;5003333;28;20003;-66
2023/07/30 10:29:48;;;;;;;;;;;;;;;;;;5010052;28;19917;-66
2023/07/30 10:32:13;;;;;;;;;;;;;;;;;;5008491;28;20024;-65
2023/07/30 10:34:39;;;;;;;;;;;;;;;;;;5011112;28;19917;-65
2023/07/30 10:37:05;;;;;;;;;;;;;;;;;;5007903;28;19918;-66
2023/07/30 10:39:31;;;;;;;;;;;;;;;;;;4991628;28;19960;-65
2023/07/30 10:41:57;;;;;;;;;;;;;;;;;;5010343;28;20257;-66
2023/07/30 10:44:23;;;;;;;;;;;;;;;;;;5006194;28;19914;-65
2023/07/30 10:46:49;;;;;;;;;;;;;;;;;;5005643;28;20024;-65
2023/07/30 10:49:15;;;;;;;;;;;;;;;;;;5013081;28;20051;-66
2023/07/30 10:51:41;;;;;;;;;;;;;;;;;;5005964;28;19979;-66
2023/07/30 10:54:08;;;;;;;;;;;;;;;;;;5010984;28;19914;-64
2023/07/30 10:56:34;;;;;;;;;;;;;;;;;;5012026;28;20371;-63
2023/07/30 10:59:00;;;;;;;;;;;;;;;;;;5016618;28;19913;-63
2023/07/30 11:01:26;;;;;;;;;;;;;;;;;;5014074;28;19964;-62
2023/07/30 11:03:52;;;;;;;;;;;;;;;;;;5011379;28;19928;-61
2023/07/30 11:06:18;;;;;;;;;;;;;;;;;;5012426;28;19918;-61
2023/07/30 11:08:45;;;;;;;;;;;;;;;;;;5010790;28;19967;-62
2023/07/30 11:11:11;;;;;;;;;;;;;;;;;;5026475;28;19914;-61
2023/07/30 11:13:37;;;;;;;;;;;;;;;;;;5010634;28;19972;-62
2023/07/30 11:16:03;;;;;;;;;;;;;;;;;;5021561;28;19997;-61
2023/07/30 11:18:29;;;;;;;;;;;;;;;;;;5017735;28;20032;-61
2023/07/30 11:20:55;;;;;;;;;;;;;;;;;;5011540;28;20377;-61
2023/07/30 11:23:21;;;;;;;;;;;;;;;;;;5005451;28;19925;-63
2023/07/30 11:25:47;;;;;;;;;;;;;;;;;;5006408;28;20372;-64
2023/07/30 11:28:13;;;;;;;;;;;;;;;;;;5019719;28;19913;-63
2023/07/30 11:30:39;;;;;;;;;;;;;;;;;;5015070;28;20022;-63
2023/07/30 11:33:05;;;;;;;;;;;;;;;;;;4992956;28;20320;-64
2023/07/30 11:35:31;;;;;;;;;;;;;;;;;;5012373;28;19914;-64
2023/07/30 11:37:57;;;;;;;;;;;;;;;;;;4993349;28;20432;-63
2023/07/30 11:40:23;;;;;;;;;;;;;;;;;;4990971;28;19921;-64
2023/07/30 11:42:49;;;;;;;;;;;;;;;;;;5014816;28;19953;-63
2023/07/30 11:45:15;;;;;;;;;;;;;;;;;;5010368;28;19918;-64
2023/07/30 11:47:41;;;;;;;;;;;;;;;;;;5014533;28;19944;-64
2023/07/30 11:50:07;;;;;;;;;;;;;;;;;;5010509;28;20290;-63
2023/07/30 11:52:33;;;;;;;;;;;;;;;;;;5008575;28;19917;-63
2023/07/30 11:54:59;;;;;;;;;;;;;;;;;;5018375;28;19957;-64
2023/07/30 11:57:24;;;;;;;;;;;;;;;;;;5014265;28;20000;-63
2023/07/30 11:59:50;;;;;;;;;;;;;;;;;;5013457;28;19913;-64
2023/07/30 12:02:16;;;;;;;;;;;;;;;;;;5015248;28;20440;-63
2023/07/30 12:04:42;;;;;;;;;;;;;;;;;;5020074;28;19921;-64
2023/07/30 12:07:08;;;;;;;;;;;;;;;;;;5015260;28;19955;-64
2023/07/30 12:09:34;;;;;;;;;;;;;;;;;;5013911;28;20013;-64
2023/07/30 12:12:00;;;;;;;;;;;;;;;;;;5013402;28;20007;-64
2023/07/30 12:14:29;;;;;;;;;;;;;;;;;;5017705;28;20019;-64
2023/07/30 12:16:55;;;;;;;;;;;;;;;;;;5020801;28;19917;-64
2023/07/30 12:19:21;;;;;;;;;;;;;;;;;;5017047;28;19956;-64
2023/07/30 12:21:47;;;;;;;;;;;;;;;;;;5013417;28;19960;-63
2023/07/30 12:24:13;;;;;;;;;;;;;;;;;;5010136;28;20400;-63
2023/07/30 12:26:39;;;;;;;;;;;;;;;;;;5004946;28;19937;-64
2023/07/30 12:29:05;;;;;;;;;;;;;;;;;;5011811;28;20381;-64
2023/07/30 12:31:31;;;;;;;;;;;;;;;;;;5006058;28;19967;-64
2023/07/30 12:33:57;;;;;;;;;;;;;;;;;;5007601;28;20016;-64
2023/07/30 12:36:23;;;;;;;;;;;;;;;;;;5010857;28;20008;-64
2023/07/30 12:38:49;;;;;;;;;;;;;;;;;;5007239;28;20032;-64
2023/07/30 12:41:15;;;;;;;;;;;;;;;;;;4999960;28;19917;-64
2023/07/30 12:43:41;;;;;;;;;;;;;;;;;;5005400;28;19913;-64
2023/07/30 12:46:06;;;;;;;;;;;;;;;;;;5008243;28;20004;-63
2023/07/30 12:48:33;;;;;;;;;;;;;;;;;;5005229;28;19921;-63
2023/07/30 12:50:59;;;;;;;;;;;;;;;;;;4989769;28;19975;-62
2023/07/30 12:53:25;;;;;;;;;;;;;;;;;;5006026;28;19913;-63
2023/07/30 12:55:51;;;;;;;;;;;;;;;;;;5010500;28;19920;-63
2023/07/30 12:58:17;;;;;;;;;;;;;;;;;;5011282;28;19950;-63
2023/07/30 13:00:43;;;;;;;;;;;;;;;;;;5009494;28;19964;-63
2023/07/30 13:03:09;;;;;;;;;;;;;;;;;;5013781;28;20377;-62
2023/07/30 13:05:35;;;;;;;;;;;;;;;;;;5013096;28;20446;-63
2023/07/30 13:08:01;;;;;;;;;;;;;;;;;;5013622;28;20016;-62
2023/07/30 13:10:27;;;;;;;;;;;;;;;;;;5012600;28;19921;-63
2023/07/30 13:12:53;;;;;;;;;;;;;;;;;;5011256;28;19939;-63
2023/07/30 13:15:19;;;;;;;;;;;;;;;;;;5010003;28;19924;-58
2023/07/30 13:17:45;;;;;;;;;;;;;;;;;;5012761;28;19913;-59
2023/07/30 13:20:11;;;;;;;;;;;;;;;;;;4995028;28;20012;-60
2023/07/30 13:22:36;;;;;;;;;;;;;;;;;;5012791;28;20111;-63
2023/07/30 13:25:02;;;;;;;;;;;;;;;;;;5011866;28;20378;-59
2023/07/30 13:27:28;;;;;;;;;;;;;;;;;;5011139;28;19917;-59
2023/07/30 13:29:54;;;;;;;;;;;;;;;;;;5011611;28;19990;-59
2023/07/30 13:32:20;;;;;;;;;;;;;;;;;;5012002;28;20353;-58
2023/07/30 13:34:46;;;;;;;;;;;;;;;;;;5011535;28;20042;-60
2023/07/30 13:37:12;;;;;;;;;;;;;;;;;;5012399;28;19913;-60
2023/07/30 13:39:38;;;;;;;;;;;;;;;;;;5010048;28;20739;-59
2023/07/30 13:42:04;;;;;;;;;;;;;;;;;;5010214;28;19917;-59
2023/07/30 13:44:30;;;;;;;;;;;;;;;;;;5012247;28;19913;-59
2023/07/30 13:46:56;;;;;;;;;;;;;;;;;;5012661;28;19914;-57
2023/07/30 13:49:22;;;;;;;;;;;;;;;;;;5012167;28;19962;-61
2023/07/30 13:51:48;;;;;;;;;;;;;;;;;;5012128;28;20396;-59
2023/07/30 13:54:13;;;;;;;;;;;;;;;;;;5010747;28;20004;-60
2023/07/30 13:56:39;;;;;;;;;;;;;;;;;;5010785;28;19967;-58
2023/07/30 13:59:05;;;;;;;;;;;;;;;;;;5009454;28;19957;-59
2023/07/30 14:01:31;;;;;;;;;;;;;;;;;;5011960;28;19918;-60
2023/07/30 14:03:58;;;;;;;;;;;;;;;;;;5009907;28;19961;-60
2023/07/30 14:06:24;;;;;;;;;;;;;;;;;;5010318;28;19914;-59
2023/07/30 14:08:49;;;;;;;;;;;;;;;;;;5010928;28;19964;-59
2023/07/30 14:11:15;;;;;;;;;;;;;;;;;;5010229;28;19914;-58
2023/07/30 14:13:41;;;;;;;;;;;;;;;;;;5011460;28;19949;-58
2023/07/30 14:16:08;;;;;;;;;;;;;;;;;;5001276;28;20020;-61
2023/07/30 14:18:34;;;;;;;;;;;;;;;;;;5002907;28;19917;-60
2023/07/30 14:21:00;;;;;;;;;;;;;;;;;;5003174;28;20020;-60
2023/07/30 14:23:26;;;;;;;;;;;;;;;;;;5006512;28;19914;-61
2023/07/30 14:25:52;;;;;;;;;;;;;;;;;;5015169;28;19959;-60
2023/07/30 14:28:18;;;;;;;;;;;;;;;;;;5004890;28;20016;-58
2023/07/30 14:30:44;;;;;;;;;;;;;;;;;;5008129;28;19964;-58
2023/07/30 14:33:10;;;;;;;;;;;;;;;;;;5010946;28;20369;-61
2023/07/30 14:35:37;;;;;;;;;;;;;;;;;;5009038;28;19913;-60
2023/07/30 14:38:03;;;;;;;;;;;;;;;;;;5009305;28;19922;-60
2023/07/30 14:40:29;;;;;;;;;;;;;;;;;;5002688;28;19952;-64
2023/07/30 14:43:02;;;;;;;;;;;;;;;;;;5008323;28;20392;-62
2023/07/30 14:45:28;;;;;;;;;;;;;;;;;;5006041;28;20339;-62
2023/07/30 14:47:54;;;;;;;;;;;;;;;;;;5009311;28;19963;-60
2023/07/30 14:50:20;;;;;;;;;;;;;;;;;;5008218;28;19917;-63
2023/07/30 14:52:45;;;;;;;;;;;;;;;;;;5003261;28;20043;-61
2023/07/30 14:55:11;;;;;;;;;;;;;;;;;;5007917;28;19967;-63
2023/07/30 14:57:37;;;;;;;;;;;;;;;;;;5005184;28;20003;-61
2023/07/30 15:00:03;;;;;;;;;;;;;;;;;;5008512;28;19922;-65
2023/07/30 15:02:29;;;;;;;;;;;;;;;;;;5007353;28;20365;-60
2023/07/30 15:04:55;;;;;;;;;;;;;;;;;;5005510;28;19932;-59
2023/07/30 15:07:25;;;;;;;;;;;;;;;;;;4991750;28;20377;-59
2023/07/30 15:09:51;;;;;;;;;;;;;;;;;;5004644;28;23512;-59
2023/07/30 15:12:17;;;;;;;;;;;;;;;;;;5004603;28;20100;-60
2023/07/30 15:14:43;;;;;;;;;;;;;;;;;;5010435;28;20015;-61
2023/07/30 15:17:08;;;;;;;;;;;;;;;;;;5009496;28;19916;-61
2023/07/30 15:19:34;;;;;;;;;;;;;;;;;;5005310;28;19924;-60
2023/07/30 15:22:01;;;;;;;;;;;;;;;;;;5005031;28;19925;-59
2023/07/30 15:24:27;;;;;;;;;;;;;;;;;;5005324;28;19922;-61
2023/07/30 15:26:53;;;;;;;;;;;;;;;;;;5007768;28;19920;-60
2023/07/30 15:29:19;;;;;;;;;;;;;;;;;;5011129;28;19953;-59
2023/07/30 15:31:45;;;;;;;;;;;;;;;;;;5010642;28;19968;-59
2023/07/30 15:34:12;;;;;;;;;;;;;;;;;;5014361;28;20024;-63
2023/07/30 15:36:37;;;;;;;;;;;;;;;;;;5010512;28;19913;-64
2023/07/30 15:39:03;;;;;;;;;;;;;;;;;;5005977;28;20430;-64
2023/07/30 15:41:29;;;;;;;;;;;;;;;;;;5006347;28;19921;-63
2023/07/30 15:43:55;;;;;;;;;;;;;;;;;;5008954;28;19968;-64
2023/07/30 15:46:22;;;;;;;;;;;;;;;;;;5009797;28;19967;-63
2023/07/30 15:48:48;;;;;;;;;;;;;;;;;;5009899;28;20370;-64
2023/07/30 15:51:14;;;;;;;;;;;;;;;;;;5008983;28;19948;-64
2023/07/30 15:53:43;;;;;;;;;;;;;;;;;;5008448;28;19917;-64
2023/07/30 15:56:09;;;;;;;;;;;;;;;;;;5012563;28;19913;-64
2023/07/30 15:58:35;;;;;;;;;;;;;;;;;;5010144;28;19949;-63
2023/07/30 16:01:01;;;;;;;;;;;;;;;;;;5016745;28;19981;-63
2023/07/30 16:03:26;;;;;;;;;;;;;;;;;;4995692;28;20309;-63
2023/07/30 16:05:53;;;;;;;;;;;;;;;;;;5009145;28;19922;-64
2023/07/30 16:08:18;;;;;;;;;;;;;;;;;;5011768;28;20004;-64
2023/07/30 16:10:44;;;;;;;;;;;;;;;;;;5004407;28;19992;-64
2023/07/30 16:13:10;;;;;;;;;;;;;;;;;;5007225;28;19979;-63
2023/07/30 16:15:36;;;;;;;;;;;;;;;;;;5004415;28;19917;-64
2023/07/30 16:18:02;;;;;;;;;;;;;;;;;;5001662;28;19952;-64
2023/07/30 16:20:28;;;;;;;;;;;;;;;;;;5008172;28;19918;-63
2023/07/30 16:22:54;;;;;;;;;;;;;;;;;;5011591;28;20502;-63
2023/07/30 16:25:20;;;;;;;;;;;;;;;;;;5004030;28;19957;-63
2023/07/30 16:27:46;;;;;;;;;;;;;;;;;;5011002;28;19973;-63
2023/07/30 16:30:12;;;;;;;;;;;;;;;;;;5008041;28;19918;-64
2023/07/30 16:32:38;;;;;;;;;;;;;;;;;;5007263;28;20655;-63
2023/07/30 16:35:05;;;;;;;;;;;;;;;;;;5012688;28;19913;-63
2023/07/30 16:37:31;;;;;;;;;;;;;;;;;;5010619;28;19917;-65